createdAt,value
2023-09-08T00:02:14.488Z,19.08
2023-09-08T00:04:41.127Z,19.06
2023-09-08T00:07:07.749Z,19.03
2023-09-08T00:09:34.395Z,19.01
2023-09-08T00:12:01.140Z,18.99
2023-09-08T00:14:27.886Z,18.97
2023-09-08T00:16:55.755Z,18.93
2023-09-08T00:19:24.261Z,18.90
2023-09-08T00:21:51.199Z,18.90
2023-09-08T00:24:18.893Z,18.87
2023-09-08T00:26:45.744Z,18.86
2023-09-08T00:29:12.646Z,18.82
2023-09-08T00:31:39.361Z,18.81
2023-09-08T00:34:07.766Z,18.79
2023-09-08T00:36:34.753Z,18.77
2023-09-08T00:39:01.689Z,18.75
2023-09-08T00:41:28.324Z,18.73
2023-09-08T00:43:54.939Z,18.71
2023-09-08T00:46:21.799Z,18.70
2023-09-08T00:48:48.430Z,18.67
2023-09-08T00:51:15.510Z,18.65
2023-09-08T00:53:42.258Z,18.64
2023-09-08T00:56:10.309Z,18.62
2023-09-08T00:58:37.318Z,18.58
2023-09-08T01:01:04.253Z,18.55
2023-09-08T01:03:30.960Z,18.51
2023-09-08T01:05:57.705Z,18.48
2023-09-08T01:08:24.617Z,18.46
2023-09-08T01:10:51.214Z,18.45
2023-09-08T01:13:18.854Z,18.44
2023-09-08T01:15:45.467Z,18.43
2023-09-08T01:18:12.148Z,18.40
2023-09-08T01:20:58.391Z,18.39
2023-09-08T01:23:38.220Z,18.39
2023-09-08T01:26:11.324Z,18.35
2023-09-08T01:28:40.162Z,18.34
2023-09-08T01:31:07.171Z,18.32
2023-09-08T01:33:34.507Z,18.30
2023-09-08T01:36:01.530Z,18.30
2023-09-08T01:38:28.321Z,18.28
2023-09-08T01:40:55.086Z,18.26
2023-09-08T01:43:21.693Z,18.26
2023-09-08T01:45:48.341Z,18.24
2023-09-08T01:48:15.001Z,18.24
2023-09-08T01:50:41.657Z,18.22
2023-09-08T01:53:08.370Z,18.18
2023-09-08T01:55:35.079Z,18.18
2023-09-08T01:58:01.960Z,18.17
2023-09-08T02:00:28.632Z,18.13
2023-09-08T02:02:55.301Z,18.10
2023-09-08T02:05:22.125Z,18.08
2023-09-08T02:07:48.838Z,18.07
2023-09-08T02:10:15.638Z,18.07
2023-09-08T02:12:42.182Z,18.04
2023-09-08T02:15:10.217Z,18.02
2023-09-08T02:17:36.871Z,17.99
2023-09-08T02:20:04.493Z,17.98
2023-09-08T02:22:31.048Z,17.97
2023-09-08T02:24:59.109Z,17.96
2023-09-08T02:27:25.817Z,17.92
2023-09-08T02:29:52.575Z,17.91
2023-09-08T02:32:19.225Z,17.89
2023-09-08T02:34:45.850Z,17.89
2023-09-08T02:37:12.541Z,17.90
2023-09-08T02:39:39.160Z,17.90
2023-09-08T02:42:05.799Z,17.90
2023-09-08T02:44:33.478Z,17.89
2023-09-08T02:47:00.045Z,17.84
2023-09-08T02:49:26.745Z,17.84
2023-09-08T02:51:53.325Z,17.82
2023-09-08T02:54:19.951Z,17.82
2023-09-08T02:56:46.528Z,17.82
2023-09-08T02:59:13.107Z,17.82
2023-09-08T03:01:39.725Z,17.80
2023-09-08T03:04:06.687Z,17.79
2023-09-08T03:06:33.374Z,17.75
2023-09-08T03:09:00.252Z,17.73
2023-09-08T03:11:26.822Z,17.72
2023-09-08T03:13:53.463Z,17.70
2023-09-08T03:16:20.251Z,17.69
2023-09-08T03:18:46.974Z,17.70
2023-09-08T03:21:15.420Z,17.67
2023-09-08T03:23:44.360Z,17.65
2023-09-08T03:26:11.642Z,17.63
2023-09-08T03:28:39.973Z,17.64
2023-09-08T03:31:06.844Z,17.62
2023-09-08T03:33:34.044Z,17.60
2023-09-08T03:36:01.175Z,17.56
2023-09-08T03:38:27.919Z,17.53
2023-09-08T03:40:54.540Z,17.51
2023-09-08T03:43:21.232Z,17.51
2023-09-08T03:45:48.551Z,17.51
2023-09-08T03:48:15.346Z,17.50
2023-09-08T03:50:43.170Z,17.48
2023-09-08T03:53:11.861Z,17.47
2023-09-08T03:55:38.402Z,17.43
2023-09-08T03:58:05.061Z,17.41
2023-09-08T04:00:31.765Z,17.37
2023-09-08T04:02:58.612Z,17.37
2023-09-08T04:05:25.333Z,17.36
2023-09-08T04:07:51.985Z,17.36
2023-09-08T04:10:18.610Z,17.36
2023-09-08T04:12:45.655Z,17.35
2023-09-08T04:15:12.373Z,17.34
2023-09-08T04:17:39.140Z,17.32
2023-09-08T04:20:07.477Z,17.30
2023-09-08T04:22:34.707Z,17.29
2023-09-08T04:25:01.878Z,17.31
2023-09-08T04:27:28.494Z,17.29
2023-09-08T04:29:55.179Z,17.27
2023-09-08T04:32:21.769Z,17.25
2023-09-08T04:34:48.358Z,17.22
2023-09-08T04:37:15.292Z,17.24
2023-09-08T04:39:41.904Z,17.24
2023-09-08T04:42:08.725Z,17.23
2023-09-08T04:44:35.289Z,17.21
2023-09-08T04:47:02.005Z,17.18
2023-09-08T04:49:30.148Z,17.18
2023-09-08T04:51:57.362Z,17.15
2023-09-08T04:54:27.605Z,17.13
2023-09-08T04:57:03.974Z,17.12
2023-09-08T04:59:41.329Z,17.14
2023-09-08T05:02:07.987Z,17.13
2023-09-08T05:04:34.654Z,17.12
2023-09-08T05:07:01.354Z,17.13
2023-09-08T05:09:27.947Z,17.12
2023-09-08T05:11:54.510Z,17.10
2023-09-08T05:14:21.220Z,17.08
2023-09-08T05:16:50.029Z,17.08
2023-09-08T05:19:16.627Z,17.08
2023-09-08T05:21:44.604Z,17.09
2023-09-08T05:24:11.398Z,17.10
2023-09-08T05:26:39.773Z,17.11
2023-09-08T05:29:06.672Z,17.11
2023-09-08T05:31:33.520Z,17.10
2023-09-08T05:34:00.240Z,17.09
2023-09-08T05:36:26.979Z,17.09
2023-09-08T05:38:53.834Z,17.09
2023-09-08T05:41:20.540Z,17.10
2023-09-08T05:43:47.396Z,17.10
2023-09-08T05:46:14.346Z,17.10
2023-09-08T05:48:41.076Z,17.12
2023-09-08T05:51:07.755Z,17.14
2023-09-08T05:53:36.567Z,17.14
2023-09-08T05:56:03.453Z,17.16
2023-09-08T05:58:30.544Z,17.16
2023-09-08T06:00:57.238Z,17.18
2023-09-08T06:03:24.013Z,17.21
2023-09-08T06:05:50.775Z,17.23
2023-09-08T06:08:18.448Z,17.26
2023-09-08T06:10:45.076Z,17.28
2023-09-08T06:13:11.738Z,17.31
2023-09-08T06:15:38.508Z,17.34
2023-09-08T06:18:05.658Z,17.36
2023-09-08T06:20:32.663Z,17.41
2023-09-08T06:22:59.507Z,17.47
2023-09-08T06:25:27.326Z,17.51
2023-09-08T06:27:54.326Z,17.57
2023-09-08T06:30:21.041Z,17.61
2023-09-08T06:32:47.755Z,17.66
2023-09-08T06:35:14.655Z,17.71
2023-09-08T06:37:41.299Z,17.76
2023-09-08T06:40:08.323Z,17.83
2023-09-08T06:42:35.008Z,17.91
2023-09-08T06:45:03.831Z,18.01
2023-09-08T06:47:30.614Z,18.12
2023-09-08T06:49:57.412Z,18.25
2023-09-08T06:52:24.160Z,18.39
2023-09-08T06:54:50.762Z,18.56
2023-09-08T06:57:20.835Z,18.70
2023-09-08T06:59:47.643Z,18.85
2023-09-08T07:02:14.843Z,18.99
2023-09-08T07:04:41.608Z,19.13
2023-09-08T07:07:08.865Z,19.22
2023-09-08T07:09:36.866Z,19.34
2023-09-08T07:12:05.057Z,19.44
2023-09-08T07:14:32.464Z,19.55
2023-09-08T07:16:59.880Z,19.67
2023-09-08T07:19:28.180Z,19.79
2023-09-08T07:21:55.103Z,19.90
2023-09-08T07:24:23.943Z,19.98
2023-09-08T07:26:51.789Z,20.08
2023-09-08T07:29:18.484Z,20.16
2023-09-08T07:31:45.156Z,20.23
2023-09-08T07:34:11.815Z,20.30
2023-09-08T07:36:38.450Z,20.38
2023-09-08T07:39:05.537Z,20.45
2023-09-08T07:41:32.225Z,20.49
2023-09-08T07:43:58.936Z,20.52
2023-09-08T07:46:25.589Z,20.59
2023-09-08T07:48:52.369Z,20.63
2023-09-08T07:51:18.981Z,20.68
2023-09-08T07:53:45.686Z,20.73
2023-09-08T07:56:12.312Z,20.76
2023-09-08T07:58:40.769Z,20.75
2023-09-08T08:01:08.507Z,20.78
2023-09-08T08:03:36.753Z,20.80
2023-09-08T08:06:03.756Z,20.83
2023-09-08T08:08:31.563Z,20.85
2023-09-08T08:10:58.428Z,20.87
2023-09-08T08:13:25.129Z,20.88
2023-09-08T08:15:51.818Z,20.90
2023-09-08T08:18:20.084Z,20.92
2023-09-08T08:20:46.821Z,20.94
2023-09-08T08:23:14.130Z,21.01
2023-09-08T08:25:40.664Z,21.04
2023-09-08T08:28:07.288Z,21.07
2023-09-08T08:30:34.112Z,21.09
2023-09-08T08:33:00.889Z,21.10
2023-09-08T08:35:28.633Z,21.12
2023-09-08T08:37:55.242Z,21.15
2023-09-08T08:40:23.108Z,21.19
2023-09-08T08:42:55.657Z,21.23
2023-09-08T08:45:26.010Z,21.28
2023-09-08T08:47:53.523Z,21.31
2023-09-08T08:50:21.140Z,21.38
2023-09-08T08:52:48.142Z,21.41
2023-09-08T08:55:16.694Z,21.42
2023-09-08T08:57:44.116Z,21.46
2023-09-08T09:00:13.978Z,21.48
2023-09-08T09:02:42.491Z,21.52
2023-09-08T09:05:13.048Z,21.58
2023-09-08T09:07:41.417Z,21.62
2023-09-08T09:10:08.847Z,21.66
2023-09-08T09:12:38.755Z,21.73
2023-09-08T09:15:06.024Z,21.76
2023-09-08T09:17:34.258Z,21.78
2023-09-08T09:20:21.186Z,21.85
2023-09-08T09:22:48.669Z,21.92
2023-09-08T09:25:24.927Z,21.97
2023-09-08T09:27:53.407Z,22.00
2023-09-08T09:30:20.165Z,22.05
2023-09-08T09:32:46.971Z,22.11
2023-09-08T09:35:13.597Z,22.13
2023-09-08T09:37:42.877Z,22.20
2023-09-08T09:40:11.882Z,22.27
2023-09-08T09:42:41.383Z,22.36
2023-09-08T09:45:09.786Z,22.44
2023-09-08T09:47:36.782Z,22.50
2023-09-08T09:50:03.590Z,22.56
2023-09-08T09:52:32.531Z,22.65
2023-09-08T09:54:59.529Z,22.77
2023-09-08T09:57:26.538Z,22.82
2023-09-08T09:59:56.029Z,22.87
2023-09-08T10:02:23.718Z,22.97
2023-09-08T10:04:51.725Z,23.02
2023-09-08T10:07:19.152Z,23.10
2023-09-08T10:09:46.221Z,23.19
2023-09-08T10:12:17.014Z,23.23
2023-09-08T10:14:44.467Z,23.29
2023-09-08T10:17:17.839Z,23.36
2023-09-08T10:22:23.579Z,23.54
2023-09-08T10:24:51.737Z,23.58
2023-09-08T10:27:21.586Z,23.65
2023-09-08T10:29:49.337Z,23.74
2023-09-08T10:32:17.770Z,23.81
2023-09-08T10:34:46.417Z,23.91
2023-09-08T10:37:23.641Z,24.00
2023-09-08T10:39:52.482Z,24.07
2023-09-08T10:42:27.088Z,24.14
2023-09-08T10:44:59.068Z,24.19
2023-09-08T10:47:31.601Z,24.29
2023-09-08T10:50:00.766Z,24.38
2023-09-08T10:52:29.950Z,24.45
2023-09-08T10:54:57.175Z,24.56
2023-09-08T10:57:25.742Z,24.62
2023-09-08T10:59:53.695Z,24.70
2023-09-08T11:05:30.964Z,24.89
2023-09-08T11:07:57.700Z,24.96
2023-09-08T11:10:24.749Z,25.04
2023-09-08T11:12:55.265Z,25.08
2023-09-08T11:15:22.033Z,25.15
2023-09-08T11:17:52.178Z,25.22
2023-09-08T11:20:28.127Z,25.26
2023-09-08T11:22:55.953Z,25.32
2023-09-08T11:25:23.583Z,25.35
2023-09-08T11:27:51.386Z,25.38
2023-09-08T11:30:20.079Z,25.41
2023-09-08T11:33:02.082Z,25.49
2023-09-08T11:35:29.268Z,25.58
2023-09-08T11:38:01.258Z,25.63
2023-09-08T11:40:28.040Z,25.64
2023-09-08T11:42:54.855Z,25.63
2023-09-08T11:45:23.752Z,25.67
2023-09-08T11:47:50.737Z,25.73
2023-09-08T11:50:19.990Z,25.75
2023-09-08T11:52:48.352Z,25.80
2023-09-08T11:55:16.138Z,25.83
2023-09-08T11:57:44.561Z,25.88
2023-09-08T12:00:17.199Z,25.97
2023-09-08T12:02:44.202Z,26.00
2023-09-08T12:05:14.655Z,26.05
2023-09-08T12:07:41.504Z,26.06
2023-09-08T12:10:11.605Z,26.08
2023-09-08T12:12:44.411Z,26.13
2023-09-08T12:15:11.166Z,26.14
2023-09-08T12:17:50.893Z,26.17
2023-09-08T12:20:18.176Z,26.14
2023-09-08T12:22:51.011Z,26.16
2023-09-08T12:25:18.391Z,26.17
2023-09-08T12:27:47.476Z,26.22
2023-09-08T12:30:19.662Z,26.27
2023-09-08T12:32:49.873Z,26.31
2023-09-08T12:35:23.694Z,26.37
2023-09-08T12:38:02.858Z,26.41
2023-09-08T12:40:30.909Z,26.38
2023-09-08T12:43:13.032Z,26.39
2023-09-08T12:45:47.579Z,26.39
2023-09-08T12:48:14.342Z,26.38
2023-09-08T12:50:42.435Z,26.41
2023-09-08T12:53:09.656Z,26.45
2023-09-08T12:55:36.228Z,26.46
2023-09-08T12:58:02.866Z,26.52
2023-09-08T13:00:32.403Z,26.54
2023-09-08T13:09:56.808Z,26.66
2023-09-08T13:11:57.134Z,26.63
2023-09-08T13:12:23.659Z,26.68
2023-09-08T13:14:50.552Z,26.81
2023-09-08T13:17:17.316Z,26.83
2023-09-08T13:19:45.587Z,26.85
2023-09-08T13:22:12.309Z,26.87
2023-09-08T13:24:39.017Z,26.87
2023-09-08T13:27:06.126Z,26.88
2023-09-08T13:29:32.856Z,26.91
2023-09-08T13:31:59.555Z,26.94
2023-09-08T13:34:27.604Z,26.96
2023-09-08T13:36:54.371Z,26.98
2023-09-08T13:39:20.926Z,27.00
2023-09-08T13:41:58.245Z,27.03
2023-09-08T13:44:25.668Z,27.06
2023-09-08T13:46:54.848Z,27.10
2023-09-08T13:49:23.363Z,27.13
2023-09-08T13:51:53.618Z,27.18
2023-09-08T13:54:24.787Z,27.23
2023-09-08T13:57:01.617Z,27.23
2023-09-08T13:59:34.570Z,27.30
2023-09-08T14:04:39.795Z,27.39
2023-09-08T14:07:09.018Z,27.41
2023-09-08T14:09:53.773Z,27.42
2023-09-08T14:13:36.695Z,27.45
2023-09-08T14:51:28.705Z,27.71
2023-09-08T15:52:55.259Z,27.47
2023-09-08T16:28:39.117Z,26.76
2023-09-08T16:36:21.497Z,26.66
2023-09-08T16:41:00.536Z,26.48
2023-09-08T16:46:28.686Z,26.36
2023-09-08T16:52:10.216Z,26.25
2023-09-08T16:54:38.504Z,26.19
2023-09-08T16:57:33.098Z,26.14
2023-09-08T17:00:01.939Z,26.08
2023-09-08T17:02:30.590Z,26.05
2023-09-08T17:05:25.448Z,26.00
2023-09-08T17:07:53.500Z,25.94
2023-09-08T17:10:22.859Z,25.88
2023-09-08T17:12:52.043Z,25.85
2023-09-08T17:15:20.164Z,25.81
2023-09-08T17:17:47.024Z,25.76
2023-09-08T17:25:44.652Z,25.61
2023-09-08T17:28:12.102Z,25.55
2023-09-08T17:30:38.801Z,25.52
2023-09-08T17:33:24.044Z,25.45
2023-09-08T17:35:50.860Z,25.39
2023-09-08T17:38:20.878Z,25.34
2023-09-08T17:41:00.452Z,25.29
2023-09-08T17:43:28.817Z,25.23
2023-09-08T17:45:55.753Z,25.17
2023-09-08T17:48:22.639Z,25.12
2023-09-08T17:50:49.530Z,25.05
2023-09-08T17:53:16.201Z,25.01
2023-09-08T17:55:42.958Z,24.95
2023-09-08T17:58:09.765Z,24.91
2023-09-08T18:00:36.560Z,24.85
2023-09-08T18:03:06.131Z,24.80
2023-09-08T18:05:33.019Z,24.74
2023-09-08T18:08:02.348Z,24.68
2023-09-08T18:10:29.224Z,24.62
2023-09-08T18:12:56.199Z,24.58
2023-09-08T18:15:22.967Z,24.52
2023-09-08T18:17:49.795Z,24.48
2023-09-08T18:20:16.601Z,24.44
2023-09-08T18:22:43.590Z,24.40
2023-09-08T18:25:10.412Z,24.35
2023-09-08T18:27:37.275Z,24.30
2023-09-08T18:30:05.538Z,24.26
2023-09-08T18:32:34.681Z,24.19
2023-09-08T18:35:02.855Z,24.16
2023-09-08T18:37:29.625Z,24.13
2023-09-08T18:39:56.412Z,24.07
2023-09-08T18:42:23.111Z,24.03
2023-09-08T18:44:52.385Z,23.97
2023-09-08T18:47:21.212Z,23.94
2023-09-08T18:49:53.669Z,23.90
2023-09-08T18:52:20.300Z,23.85
2023-09-08T18:54:49.846Z,23.80
2023-09-08T18:57:34.856Z,23.76
2023-09-08T19:00:01.802Z,23.72
2023-09-08T19:02:28.555Z,23.71
2023-09-08T19:04:55.395Z,23.67
2023-09-08T19:07:22.174Z,23.63
2023-09-08T19:09:49.802Z,23.58
2023-09-08T19:12:16.417Z,23.56
2023-09-08T19:14:43.154Z,23.51
2023-09-08T19:17:10.104Z,23.48
2023-09-08T19:19:37.001Z,23.42
2023-09-08T19:22:03.896Z,23.40
2023-09-08T19:24:31.830Z,23.35
2023-09-08T19:26:59.033Z,23.32
2023-09-08T19:29:25.648Z,23.29
2023-09-08T19:31:52.313Z,23.26
2023-09-08T19:34:19.038Z,23.23
2023-09-08T19:36:45.749Z,23.16
2023-09-08T19:39:12.342Z,23.13
2023-09-08T19:41:38.980Z,23.09
2023-09-08T19:44:07.089Z,23.09
2023-09-08T19:46:37.908Z,23.06
2023-09-08T19:49:04.765Z,23.04
2023-09-08T19:51:31.482Z,22.97
2023-09-08T19:53:58.182Z,22.92
2023-09-08T19:56:25.409Z,22.88
2023-09-08T19:58:52.386Z,22.87
2023-09-08T20:01:19.624Z,22.84
2023-09-08T20:03:46.469Z,22.79
2023-09-08T20:06:16.658Z,22.77
2023-09-08T20:08:43.477Z,22.75
2023-09-08T20:11:10.413Z,22.72
2023-09-08T20:13:37.730Z,22.69
2023-09-08T20:16:07.893Z,22.64
2023-09-08T20:18:36.266Z,22.59
2023-09-08T20:21:04.451Z,22.56
2023-09-08T20:23:32.471Z,22.55
2023-09-08T20:25:59.862Z,22.53
2023-09-08T20:28:26.803Z,22.51
2023-09-08T20:31:12.997Z,22.49
2023-09-08T20:33:41.243Z,22.46
2023-09-08T20:36:07.973Z,22.42
2023-09-08T20:38:34.717Z,22.41
2023-09-08T20:41:01.607Z,22.36
2023-09-08T20:43:28.192Z,22.33
2023-09-08T20:46:04.267Z,22.29
2023-09-08T20:48:32.945Z,22.26
2023-09-08T20:51:08.327Z,22.26
2023-09-08T20:53:38.017Z,22.22
2023-09-08T20:56:08.323Z,22.21
2023-09-08T20:58:35.168Z,22.16
2023-09-08T21:01:02.724Z,22.14
2023-09-08T21:03:29.940Z,22.12
2023-09-08T21:05:56.864Z,22.09
2023-09-08T21:08:24.678Z,22.06
2023-09-08T21:10:51.528Z,22.05
2023-09-08T21:13:18.229Z,22.00
2023-09-08T21:15:46.796Z,21.96
2023-09-08T21:18:13.565Z,21.95
2023-09-08T21:20:40.356Z,21.95
2023-09-08T21:23:07.103Z,21.93
2023-09-08T21:25:35.259Z,21.90
2023-09-08T21:28:04.669Z,21.88
2023-09-08T21:30:31.378Z,21.86
2023-09-08T21:32:58.398Z,21.85
2023-09-08T21:35:27.407Z,21.84
2023-09-08T21:37:54.234Z,21.82
2023-09-08T21:40:20.966Z,21.80
2023-09-08T21:42:47.755Z,21.75
2023-09-08T21:45:14.829Z,21.72
2023-09-08T21:47:41.951Z,21.70
2023-09-08T21:50:09.446Z,21.69
2023-09-08T21:52:39.543Z,21.68
2023-09-08T21:55:07.886Z,21.65
2023-09-08T21:57:34.765Z,21.63
2023-09-08T22:00:01.586Z,21.60
2023-09-08T22:02:29.541Z,21.54
2023-09-08T22:04:56.800Z,21.48
2023-09-08T22:07:24.632Z,21.47
2023-09-08T22:12:34.673Z,21.38
2023-09-08T22:15:04.303Z,21.39
2023-09-08T22:17:34.107Z,21.37
2023-09-08T22:20:01.156Z,21.35
2023-09-08T22:22:27.912Z,21.35
2023-09-08T22:25:04.304Z,21.33
2023-09-08T22:27:31.013Z,21.32
2023-09-08T22:30:04.342Z,21.29
2023-09-08T22:32:39.348Z,21.25
2023-09-08T22:35:06.548Z,21.20
2023-09-08T22:37:36.362Z,21.17
2023-09-08T22:40:07.493Z,21.15
2023-09-08T22:42:37.088Z,21.14
2023-09-08T22:45:06.205Z,21.13
2023-09-08T22:47:33.588Z,21.11
2023-09-08T22:50:02.148Z,21.08
2023-09-08T22:52:31.127Z,21.05
2023-09-08T22:55:23.464Z,21.02
2023-09-08T22:57:56.774Z,20.98
2023-09-08T23:00:28.606Z,20.94
2023-09-08T23:02:56.609Z,20.92
2023-09-08T23:05:23.344Z,20.90
2023-09-08T23:07:50.016Z,20.86
2023-09-08T23:10:16.993Z,20.84
2023-09-08T23:12:43.816Z,20.81
2023-09-08T23:15:11.239Z,20.78
2023-09-08T23:17:38.252Z,20.74
2023-09-08T23:20:22.329Z,20.72
2023-09-08T23:22:49.193Z,20.69
2023-09-08T23:25:16.005Z,20.68
2023-09-08T23:27:42.776Z,20.68
2023-09-08T23:30:11.232Z,20.68
2023-09-08T23:32:38.059Z,20.64
2023-09-08T23:35:06.603Z,20.63
2023-09-08T23:37:33.812Z,20.61
2023-09-08T23:42:59.146Z,20.57
2023-09-08T23:45:25.910Z,20.55
2023-09-08T23:47:53.666Z,20.53
2023-09-08T23:50:42.918Z,20.51
2023-09-08T23:53:09.903Z,20.49
2023-09-08T23:55:37.504Z,20.45
2023-09-08T23:58:05.845Z,20.39
